createdAt,value
2024-04-26T00:07:34.410Z,8.2
2024-04-26T00:27:35.722Z,8
2024-04-26T00:37:36.229Z,8
2024-04-26T00:47:37.103Z,7.9
2024-04-26T01:07:38.418Z,7.5
2024-04-26T01:27:39.832Z,7.3
2024-04-26T01:47:40.990Z,7.3
2024-04-26T01:57:41.472Z,7.5
2024-04-26T02:07:41.650Z,7.6
2024-04-26T02:17:42.565Z,7.6
2024-04-26T02:27:43.425Z,7.5
2024-04-26T02:37:43.606Z,7.5
2024-04-26T02:47:44.685Z,7.6
2024-04-26T02:57:45.355Z,7.7
2024-04-26T03:07:46.117Z,7.9
2024-04-26T03:17:46.526Z,7.9
2024-04-26T03:27:47.381Z,7.9
2024-04-26T03:37:47.751Z,7.9
2024-04-26T03:47:47.971Z,7.9
2024-04-26T03:57:48.280Z,7.8
2024-04-26T04:07:48.910Z,7.7
2024-04-26T04:17:49.879Z,7.5
2024-04-26T04:27:50.527Z,7.3
2024-04-26T04:37:50.815Z,7.2
2024-04-26T04:47:51.197Z,7.2
2024-04-26T04:57:52.064Z,7.2
2024-04-26T05:07:52.646Z,7.4
2024-04-26T05:17:53.244Z,7.5
2024-04-26T05:27:53.223Z,7.6
2024-04-26T05:37:53.427Z,7.6
2024-04-26T05:47:53.933Z,7.7
2024-04-26T05:57:54.728Z,7.8
2024-04-26T06:07:54.971Z,7.8
2024-04-26T06:17:55.638Z,7.8
2024-04-26T06:27:56.112Z,7.7
2024-04-26T06:37:57.236Z,7.7
2024-04-26T06:57:57.626Z,7.5
2024-04-26T07:07:58.200Z,7.4
2024-04-26T07:17:58.619Z,7.4
2024-04-26T07:27:59.467Z,7.3
2024-04-26T07:37:59.626Z,7.3
2024-04-26T07:48:00.913Z,7.4
2024-04-26T07:58:00.888Z,7.4
2024-04-26T08:08:01.860Z,7.4
2024-04-26T08:28:03.512Z,7.5
2024-04-26T08:38:04.522Z,7.6
2024-04-26T08:48:05.616Z,7.7
2024-04-26T09:08:06.837Z,7.7
2024-04-26T09:18:07.716Z,7.6
2024-04-26T09:28:07.785Z,7.6
2024-04-26T09:38:08.022Z,7.6
2024-04-26T09:48:09.197Z,7.6
2024-04-26T09:58:09.970Z,7.6
2024-04-26T10:08:10.693Z,7.6
2024-04-26T10:18:11.601Z,7.6
2024-04-26T10:28:12.061Z,7.6
2024-04-26T10:48:12.443Z,7.7
2024-04-26T11:08:12.914Z,7.9
2024-04-26T11:28:13.744Z,8
2024-04-26T11:38:14.333Z,8.2
2024-04-26T11:48:14.759Z,8.3
2024-04-26T11:58:15.642Z,8.3
2024-04-26T12:08:16.210Z,8.3
2024-04-26T12:18:16.811Z,8.6
2024-04-26T12:38:18.038Z,9.1
2024-04-26T12:48:18.976Z,9.4
2024-04-26T12:58:19.887Z,9.5
2024-04-26T13:08:20.190Z,9.9
2024-04-26T13:18:21.362Z,10.4
2024-04-26T13:28:22.195Z,11.2
2024-04-26T13:38:22.464Z,11.5
2024-04-26T13:48:23.334Z,11.8
2024-04-26T13:58:23.923Z,11.8
2024-04-26T14:08:24.986Z,11.9
2024-04-26T14:18:26.047Z,12.4
2024-04-26T14:28:33.349Z,12.6
2024-04-26T14:38:31.799Z,12.5
2024-04-26T14:48:32.797Z,12.5
2024-04-26T14:58:33.353Z,12.6
2024-04-26T15:08:33.535Z,12.8
2024-04-26T15:28:34.147Z,12.3
2024-04-26T15:48:37.251Z,12.2
2024-04-26T16:08:37.583Z,12
2024-04-26T16:28:38.892Z,12.1
2024-04-26T16:48:39.270Z,12.1
2024-04-26T17:08:40.817Z,12
2024-04-26T17:28:41.871Z,11.9
2024-04-26T17:48:43.133Z,11.6
2024-04-26T18:08:43.901Z,11.2
2024-04-26T18:28:44.521Z,11.1
2024-04-26T18:48:45.799Z,10.9
2024-04-26T19:08:46.819Z,10.5
2024-04-26T19:18:47.303Z,10.5
2024-04-26T19:28:47.740Z,10.3
2024-04-26T19:48:49.057Z,10
2024-04-26T20:08:50.540Z,9.7
2024-04-26T20:18:50.900Z,9.6
2024-04-26T20:28:51.241Z,9.5
2024-04-26T20:38:51.712Z,9.3
2024-04-26T20:48:52.561Z,9.2
2024-04-26T20:58:53.363Z,9
2024-04-26T21:08:59.737Z,8.9
2024-04-26T21:18:59.918Z,8.7
2024-04-26T21:29:00.172Z,8.7
2024-04-26T21:39:00.279Z,8.8
2024-04-26T21:49:00.438Z,8.8
2024-04-26T21:59:07.066Z,8.7
2024-04-26T22:19:02.436Z,8.6
2024-04-26T22:29:03.309Z,8.4
2024-04-26T22:39:04.337Z,8.3
2024-04-26T22:49:09.228Z,8.4
2024-04-26T22:59:05.296Z,8.3
2024-04-26T23:09:06.050Z,8.1
2024-04-26T23:19:07.128Z,7.9
2024-04-26T23:29:07.546Z,7.8
2024-04-26T23:39:08.599Z,7.8
2024-04-26T23:49:08.861Z,7.7
2024-04-26T23:59:09.714Z,7.5
